WXM80 ListenWXM80 Stop

You find our weather info also at:

UK Metoffice

WeatherCloud

Weather Underground

Northeastern Weather Network

AWEKAS

Citizen Weather Observer Program (CWOP)

HAMweather, WeatherForYou, PWS Weather


Weather Underground History page Text

Daily Summary for April 5, 2017 Units:  Both    English   Metric
« Previous Day
Next Day »
Daily Weekly Monthly Yearly Custom
  High: Low: Average:
Temperature: 56.4 °F /  13.6 °C 42.2 °F /  5.7 °C 47.5 °F /  8.6 °C
Dew Point: 48.4 °F /  9.1 °C 41.0 °F /  5 °C 44.1 °F /  6.7 °C
Humidity: 98 % 69 % 88 %
Wind Speed: 9.4 mph /  15.1 km/h - 2.1 mph /  3.4 km/h
Wind Gust: 15.0 mph /  24.1 km/h - -
Wind:- - East
Pressure: 29.98 in /  1015.1 hPa 29.72 in /  1006.3 hPa -
Precipitation: 0.00 in /  0 mm    
Historical Graphs
 
 
Tabular Data for April 5, 2017
Time Temperature Dew Point Pressure Wind Wind Speed Wind Gust Humidity Rainfall Rate (Hourly)
00:02 42.4 °F /  5.8 °C 41.6 °F /  5.3 °C 29.73 in /  1006.7 hPa Calm   3.0 mph /  4.8 km/h 97 % 0.00 in /  0 mm
00:07 42.4 °F /  5.8 °C 41.6 °F /  5.3 °C 29.73 in /  1006.7 hPa ENE 1.0 mph /  1.6 km/h 3.0 mph /  4.8 km/h 97 % 0.00 in /  0 mm
00:12 42.3 °F /  5.7 °C 41.5 °F /  5.3 °C 29.73 in /  1006.7 hPa Calm   1.2 mph /  1.9 km/h 97 % 0.00 in /  0 mm
00:17 42.3 °F /  5.7 °C 41.5 °F /  5.3 °C 29.72 in /  1006.3 hPa Calm   1.0 mph /  1.6 km/h 97 % 0.00 in /  0 mm
00:22 42.3 °F /  5.7 °C 41.5 °F /  5.3 °C 29.72 in /  1006.3 hPa ENE 1.0 mph /  1.6 km/h 2.0 mph /  3.2 km/h 97 % 0.00 in /  0 mm
00:27 42.2 °F /  5.7 °C 41.4 °F /  5.2 °C 29.73 in /  1006.7 hPa Calm   1.0 mph /  1.6 km/h 97 % 0.00 in /  0 mm
00:32 42.3 °F /  5.7 °C 41.5 °F /  5.3 °C 29.72 in /  1006.3 hPa ENE 1.0 mph /  1.6 km/h 2.0 mph /  3.2 km/h 97 % 0.00 in /  0 mm
00:37 42.3 °F /  5.7 °C 41.5 °F /  5.3 °C 29.72 in /  1006.3 hPa Calm   1.0 mph /  1.6 km/h 97 % 0.00 in /  0 mm
00:42 42.4 °F /  5.8 °C 41.6 °F /  5.3 °C 29.72 in /  1006.3 hPa Calm   1.0 mph /  1.6 km/h 97 % 0.00 in /  0 mm
00:47 42.4 °F /  5.8 °C 41.6 °F /  5.3 °C 29.72 in /  1006.3 hPa ENE 0.1 mph /  0.2 km/h   97 % 0.00 in /  0 mm
00:52 42.4 °F /  5.8 °C 41.6 °F /  5.3 °C 29.72 in /  1006.3 hPa Calm   1.0 mph /  1.6 km/h 97 % 0.00 in /  0 mm
00:57 42.5 °F /  5.8 °C 41.7 °F /  5.4 °C 29.72 in /  1006.3 hPa ENE 2.3 mph /  3.7 km/h 3.5 mph /  5.6 km/h 97 % 0.00 in /  0 mm
01:02 42.5 °F /  5.8 °C 41.7 °F /  5.4 °C 29.72 in /  1006.3 hPa ENE 1.0 mph /  1.6 km/h 3.0 mph /  4.8 km/h 97 % 0.00 in /  0 mm
01:07 42.5 °F /  5.8 °C 41.7 °F /  5.4 °C 29.72 in /  1006.3 hPa ENE 1.2 mph /  1.9 km/h 3.5 mph /  5.6 km/h 97 % 0.00 in /  0 mm
01:12 42.5 °F /  5.8 °C 41.7 °F /  5.4 °C 29.72 in /  1006.3 hPa ENE 0.4 mph /  0.6 km/h 3.5 mph /  5.6 km/h 97 % 0.00 in /  0 mm
01:17 42.5 °F /  5.8 °C 41.7 °F /  5.4 °C 29.72 in /  1006.3 hPa ENE 0.2 mph /  0.3 km/h   97 % 0.00 in /  0 mm
01:22 42.5 °F /  5.8 °C 41.7 °F /  5.4 °C 29.72 in /  1006.3 hPa ENE 1.4 mph /  2.3 km/h 2.3 mph /  3.7 km/h 97 % 0.00 in /  0 mm
01:27 42.5 °F /  5.8 °C 41.7 °F /  5.4 °C 29.72 in /  1006.3 hPa ENE 0.5 mph /  0.8 km/h 1.0 mph /  1.6 km/h 97 % 0.00 in /  0 mm
01:32 42.5 °F /  5.8 °C 41.7 °F /  5.4 °C 29.72 in /  1006.3 hPa Calm   1.2 mph /  1.9 km/h 97 % 0.00 in /  0 mm
01:37 42.5 °F /  5.8 °C 41.7 °F /  5.4 °C 29.72 in /  1006.3 hPa Calm     97 % 0.00 in /  0 mm
01:42 42.5 °F /  5.8 °C 41.7 °F /  5.4 °C 29.72 in /  1006.3 hPa ENE 0.1 mph /  0.2 km/h 1.2 mph /  1.9 km/h 97 % 0.00 in /  0 mm
01:47 42.5 °F /  5.8 °C 41.7 °F /  5.4 °C 29.73 in /  1006.7 hPa Calm     97 % 0.00 in /  0 mm
01:52 42.5 °F /  5.8 °C 41.7 °F /  5.4 °C 29.73 in /  1006.7 hPa Calm     97 % 0.00 in /  0 mm
01:57 42.5 °F /  5.8 °C 41.7 °F /  5.4 °C 29.73 in /  1006.7 hPa Calm     97 % 0.00 in /  0 mm
02:02 42.5 °F /  5.8 °C 41.7 °F /  5.4 °C 29.72 in /  1006.3 hPa Calm     97 % 0.00 in /  0 mm
02:07 42.5 °F /  5.8 °C 41.7 °F /  5.4 °C 29.73 in /  1006.7 hPa Calm     97 % 0.00 in /  0 mm
02:13 42.5 °F /  5.8 °C 41.7 °F /  5.4 °C 29.73 in /  1006.7 hPa Calm     97 % 0.00 in /  0 mm
02:18 42.5 °F /  5.8 °C 41.7 °F /  5.4 °C 29.73 in /  1006.7 hPa ENE 0.6 mph /  1 km/h 2.3 mph /  3.7 km/h 97 % 0.00 in /  0 mm
02:23 42.5 °F /  5.8 °C 41.7 °F /  5.4 °C 29.73 in /  1006.7 hPa Calm     97 % 0.00 in /  0 mm
02:28 42.6 °F /  5.9 °C 41.8 °F /  5.4 °C 29.72 in /  1006.3 hPa ENE 1.6 mph /  2.6 km/h 3.5 mph /  5.6 km/h 97 % 0.00 in /  0 mm
02:33 42.5 °F /  5.8 °C 41.7 °F /  5.4 °C 29.72 in /  1006.3 hPa ENE 0.3 mph /  0.5 km/h 2.3 mph /  3.7 km/h 97 % 0.00 in /  0 mm
02:38 42.5 °F /  5.8 °C 41.7 °F /  5.4 °C 29.73 in /  1006.7 hPa Calm   1.2 mph /  1.9 km/h 97 % 0.00 in /  0 mm
02:43 42.5 °F /  5.8 °C 41.7 °F /  5.4 °C 29.73 in /  1006.7 hPa Calm     97 % 0.00 in /  0 mm
02:48 42.5 °F /  5.8 °C 41.7 °F /  5.4 °C 29.73 in /  1006.7 hPa Calm     97 % 0.00 in /  0 mm
02:53 42.4 °F /  5.8 °C 41.6 °F /  5.3 °C 29.73 in /  1006.7 hPa Calm     97 % 0.00 in /  0 mm
02:58 42.4 °F /  5.8 °C 41.6 °F /  5.3 °C 29.74 in /  1007 hPa Calm     97 % 0.00 in /  0 mm
03:03 42.4 °F /  5.8 °C 41.6 °F /  5.3 °C 29.74 in /  1007 hPa Calm     97 % 0.00 in /  0 mm
03:08 42.4 °F /  5.8 °C 41.6 °F /  5.3 °C 29.74 in /  1007 hPa Calm     97 % 0.00 in /  0 mm
03:13 42.4 °F /  5.8 °C 41.6 °F /  5.3 °C 29.74 in /  1007 hPa Calm     97 % 0.00 in /  0 mm
03:18 42.4 °F /  5.8 °C 41.6 °F /  5.3 °C 29.74 in /  1007 hPa Calm     97 % 0.00 in /  0 mm
03:23 42.4 °F /  5.8 °C 41.6 °F /  5.3 °C 29.74 in /  1007 hPa Calm     97 % 0.00 in /  0 mm
03:28 42.4 °F /  5.8 °C 41.6 °F /  5.3 °C 29.74 in /  1007 hPa Calm     97 % 0.00 in /  0 mm
03:33 42.4 °F /  5.8 °C 41.6 °F /  5.3 °C 29.74 in /  1007 hPa Calm     97 % 0.00 in /  0 mm
03:38 42.4 °F /  5.8 °C 41.6 °F /  5.3 °C 29.74 in /  1007 hPa Calm     97 % 0.00 in /  0 mm
03:43 42.4 °F /  5.8 °C 41.6 °F /  5.3 °C 29.74 in /  1007 hPa Calm     97 % 0.00 in /  0 mm
03:48 42.4 °F /  5.8 °C 41.6 °F /  5.3 °C 29.74 in /  1007 hPa Calm     97 % 0.00 in /  0 mm
03:53 42.4 °F /  5.8 °C 41.6 °F /  5.3 °C 29.74 in /  1007 hPa Calm     97 % 0.00 in /  0 mm
03:58 42.5 °F /  5.8 °C 41.7 °F /  5.4 °C 29.75 in /  1007.3 hPa Calm     97 % 0.00 in /  0 mm
04:03 42.5 °F /  5.8 °C 41.7 °F /  5.4 °C 29.75 in /  1007.3 hPa Calm     97 % 0.00 in /  0 mm
04:08 42.5 °F /  5.8 °C 41.7 °F /  5.4 °C 29.75 in /  1007.3 hPa Calm     97 % 0.00 in /  0 mm
04:13 42.5 °F /  5.8 °C 41.7 °F /  5.4 °C 29.75 in /  1007.3 hPa Calm     97 % 0.00 in /  0 mm
04:18 42.5 °F /  5.8 °C 41.7 °F /  5.4 °C 29.75 in /  1007.3 hPa Calm     97 % 0.00 in /  0 mm
04:23 42.5 °F /  5.8 °C 41.7 °F /  5.4 °C 29.75 in /  1007.3 hPa Calm     97 % 0.00 in /  0 mm
04:28 42.5 °F /  5.8 °C 41.7 °F /  5.4 °C 29.75 in /  1007.3 hPa ENE 0.6 mph /  1 km/h 2.3 mph /  3.7 km/h 97 % 0.00 in /  0 mm
04:33 42.5 °F /  5.8 °C 41.7 °F /  5.4 °C 29.76 in /  1007.7 hPa East 0.2 mph /  0.3 km/h 2.3 mph /  3.7 km/h 97 % 0.00 in /  0 mm
04:38 42.5 °F /  5.8 °C 41.7 °F /  5.4 °C 29.77 in /  1008 hPa Calm     97 % 0.00 in /  0 mm
04:43 42.5 °F /  5.8 °C 41.7 °F /  5.4 °C 29.77 in /  1008 hPa East 0.5 mph /  0.8 km/h 2.3 mph /  3.7 km/h 97 % 0.00 in /  0 mm
04:49 42.5 °F /  5.8 °C 41.7 °F /  5.4 °C 29.77 in /  1008 hPa Calm     97 % 0.00 in /  0 mm
04:54 42.5 °F /  5.8 °C 41.7 °F /  5.4 °C 29.76 in /  1007.7 hPa Calm     97 % 0.00 in /  0 mm
04:59 42.5 °F /  5.8 °C 41.7 °F /  5.4 °C 29.77 in /  1008 hPa Calm     97 % 0.00 in /  0 mm
05:04 42.6 °F /  5.9 °C 41.8 °F /  5.4 °C 29.77 in /  1008 hPa Calm   1.2 mph /  1.9 km/h 97 % 0.00 in /  0 mm
05:09 42.6 °F /  5.9 °C 41.8 °F /  5.4 °C 29.77 in /  1008 hPa Calm     97 % 0.00 in /  0 mm
05:14 42.6 °F /  5.9 °C 41.8 °F /  5.4 °C 29.77 in /  1008 hPa Calm     97 % 0.00 in /  0 mm
05:19 42.6 °F /  5.9 °C 41.8 °F /  5.4 °C 29.77 in /  1008 hPa Calm     97 % 0.00 in /  0 mm
05:24 42.6 °F /  5.9 °C 41.8 °F /  5.4 °C 29.77 in /  1008 hPa Calm     97 % 0.00 in /  0 mm
05:29 42.6 °F /  5.9 °C 41.8 °F /  5.4 °C 29.78 in /  1008.4 hPa Calm     97 % 0.00 in /  0 mm
05:34 42.6 °F /  5.9 °C 41.8 °F /  5.4 °C 29.78 in /  1008.4 hPa Calm     97 % 0.00 in /  0 mm
05:39 42.7 °F /  5.9 °C 41.9 °F /  5.5 °C 29.78 in /  1008.4 hPa Calm     97 % 0.00 in /  0 mm
05:44 42.6 °F /  5.9 °C 41.8 °F /  5.4 °C 29.79 in /  1008.7 hPa Calm     97 % 0.00 in /  0 mm
05:49 42.7 °F /  5.9 °C 41.9 °F /  5.5 °C 29.79 in /  1008.7 hPa Calm     97 % 0.00 in /  0 mm
05:54 42.7 °F /  5.9 °C 41.9 °F /  5.5 °C 29.80 in /  1009 hPa Calm     97 % 0.00 in /  0 mm
05:59 42.7 °F /  5.9 °C 41.9 °F /  5.5 °C 29.79 in /  1008.7 hPa Calm   1.0 mph /  1.6 km/h 97 % 0.00 in /  0 mm
06:04 42.7 °F /  5.9 °C 41.9 °F /  5.5 °C 29.79 in /  1008.7 hPa Calm   1.0 mph /  1.6 km/h 97 % 0.00 in /  0 mm
06:09 42.7 °F /  5.9 °C 41.9 °F /  5.5 °C 29.79 in /  1008.7 hPa East 0.6 mph /  1 km/h 1.2 mph /  1.9 km/h 97 % 0.00 in /  0 mm
06:14 42.7 °F /  5.9 °C 41.9 °F /  5.5 °C 29.80 in /  1009 hPa East 0.8 mph /  1.3 km/h 2.3 mph /  3.7 km/h 97 % 0.00 in /  0 mm
06:19 42.6 °F /  5.9 °C 41.8 °F /  5.4 °C 29.80 in /  1009 hPa East 0.7 mph /  1.1 km/h 2.3 mph /  3.7 km/h 97 % 0.00 in /  0 mm
06:24 42.6 °F /  5.9 °C 41.8 °F /  5.4 °C 29.80 in /  1009 hPa East 0.2 mph /  0.3 km/h 2.3 mph /  3.7 km/h 97 % 0.00 in /  0 mm
06:29 42.5 °F /  5.8 °C 41.7 °F /  5.4 °C 29.81 in /  1009.4 hPa Calm     97 % 0.00 in /  0 mm
06:34 42.5 °F /  5.8 °C 41.7 °F /  5.4 °C 29.81 in /  1009.4 hPa Calm     97 % 0.00 in /  0 mm
06:39 42.5 °F /  5.8 °C 41.7 °F /  5.4 °C 29.82 in /  1009.7 hPa Calm     97 % 0.00 in /  0 mm
06:44 42.6 °F /  5.9 °C 41.8 °F /  5.4 °C 29.82 in /  1009.7 hPa Calm     97 % 0.00 in /  0 mm
06:49 42.5 °F /  5.8 °C 41.7 °F /  5.4 °C 29.82 in /  1009.7 hPa Calm     97 % 0.00 in /  0 mm
06:54 42.6 °F /  5.9 °C 41.8 °F /  5.4 °C 29.83 in /  1010 hPa Calm     97 % 0.00 in /  0 mm
06:59 42.6 °F /  5.9 °C 41.8 °F /  5.4 °C 29.83 in /  1010 hPa Calm   1.2 mph /  1.9 km/h 97 % 0.00 in /  0 mm
07:04 42.6 °F /  5.9 °C 41.8 °F /  5.4 °C 29.84 in /  1010.4 hPa Calm     97 % 0.00 in /  0 mm
07:09 42.6 °F /  5.9 °C 41.8 °F /  5.4 °C 29.84 in /  1010.4 hPa Calm     97 % 0.00 in /  0 mm
07:14 42.6 °F /  5.9 °C 41.8 °F /  5.4 °C 29.85 in /  1010.7 hPa Calm     97 % 0.00 in /  0 mm
07:19 42.7 °F /  5.9 °C 41.9 °F /  5.5 °C 29.85 in /  1010.7 hPa Calm     97 % 0.00 in /  0 mm
07:24 42.7 °F /  5.9 °C 41.9 °F /  5.5 °C 29.85 in /  1010.7 hPa Calm     97 % 0.00 in /  0 mm
07:30 42.7 °F /  5.9 °C 41.9 °F /  5.5 °C 29.86 in /  1011.1 hPa Calm     97 % 0.00 in /  0 mm
07:35 42.8 °F /  6 °C 42.0 °F /  5.6 °C 29.86 in /  1011.1 hPa Calm     97 % 0.00 in /  0 mm
07:40 42.8 °F /  6 °C 42.0 °F /  5.6 °C 29.86 in /  1011.1 hPa Calm     97 % 0.00 in /  0 mm
07:45 42.9 °F /  6.1 °C 42.1 °F /  5.6 °C 29.86 in /  1011.1 hPa Calm     97 % 0.00 in /  0 mm
07:50 43.0 °F /  6.1 °C 42.2 °F /  5.7 °C 29.86 in /  1011.1 hPa East 1.3 mph /  2.1 km/h 2.3 mph /  3.7 km/h 97 % 0.00 in /  0 mm
07:55 43.1 °F /  6.2 °C 42.3 °F /  5.7 °C 29.87 in /  1011.4 hPa East 0.2 mph /  0.3 km/h 1.2 mph /  1.9 km/h 97 % 0.00 in /  0 mm
08:00 43.1 °F /  6.2 °C 42.3 °F /  5.7 °C 29.87 in /  1011.4 hPa ENE 1.0 mph /  1.6 km/h 3.0 mph /  4.8 km/h 97 % 0.00 in /  0 mm
08:05 43.1 °F /  6.2 °C 42.3 °F /  5.7 °C 29.87 in /  1011.4 hPa ENE 0.5 mph /  0.8 km/h 3.5 mph /  5.6 km/h 97 % 0.00 in /  0 mm
08:10 43.1 °F /  6.2 °C 42.3 °F /  5.7 °C 29.87 in /  1011.4 hPa ENE 0.5 mph /  0.8 km/h 1.2 mph /  1.9 km/h 97 % 0.00 in /  0 mm
08:15 43.1 °F /  6.2 °C 42.3 °F /  5.7 °C 29.87 in /  1011.4 hPa ENE 1.4 mph /  2.3 km/h 3.5 mph /  5.6 km/h 97 % 0.00 in /  0 mm
08:20 43.1 °F /  6.2 °C 42.3 °F /  5.7 °C 29.88 in /  1011.7 hPa Calm     97 % 0.00 in /  0 mm
08:25 43.2 °F /  6.2 °C 42.4 °F /  5.8 °C 29.88 in /  1011.7 hPa ENE 0.1 mph /  0.2 km/h 1.2 mph /  1.9 km/h 97 % 0.00 in /  0 mm
08:30 43.2 °F /  6.2 °C 42.4 °F /  5.8 °C 29.88 in /  1011.7 hPa ENE 0.2 mph /  0.3 km/h 2.0 mph /  3.2 km/h 97 % 0.00 in /  0 mm
08:35 43.2 °F /  6.2 °C 42.4 °F /  5.8 °C 29.88 in /  1011.7 hPa ENE 0.6 mph /  1 km/h 2.0 mph /  3.2 km/h 97 % 0.00 in /  0 mm
08:40 43.3 °F /  6.3 °C 42.5 °F /  5.8 °C 29.88 in /  1011.7 hPa Calm   1.2 mph /  1.9 km/h 97 % 0.00 in /  0 mm
08:45 43.3 °F /  6.3 °C 42.5 °F /  5.8 °C 29.89 in /  1012.1 hPa ENE 1.5 mph /  2.4 km/h 2.3 mph /  3.7 km/h 97 % 0.00 in /  0 mm
08:50 43.4 °F /  6.3 °C 42.6 °F /  5.9 °C 29.88 in /  1011.7 hPa ENE 0.1 mph /  0.2 km/h 2.3 mph /  3.7 km/h 97 % 0.00 in /  0 mm
08:55 43.6 °F /  6.4 °C 42.8 °F /  6 °C 29.89 in /  1012.1 hPa ENE 0.9 mph /  1.4 km/h 2.3 mph /  3.7 km/h 97 % 0.00 in /  0 mm
09:00 43.8 °F /  6.6 °C 43.3 °F /  6.3 °C 29.89 in /  1012.1 hPa ENE 1.4 mph /  2.3 km/h 3.5 mph /  5.6 km/h 98 % 0.00 in /  0 mm
09:05 43.8 °F /  6.6 °C 43.0 °F /  6.1 °C 29.89 in /  1012.1 hPa ENE 2.2 mph /  3.5 km/h 3.5 mph /  5.6 km/h 97 % 0.00 in /  0 mm
09:10 43.9 °F /  6.6 °C 43.1 °F /  6.2 °C 29.89 in /  1012.1 hPa ENE 0.5 mph /  0.8 km/h 2.3 mph /  3.7 km/h 97 % 0.00 in /  0 mm
09:15 44.0 °F /  6.7 °C 43.2 °F /  6.2 °C 29.89 in /  1012.1 hPa ENE 0.9 mph /  1.4 km/h 2.3 mph /  3.7 km/h 97 % 0.00 in /  0 mm
09:21 44.1 °F /  6.7 °C 43.3 °F /  6.3 °C 29.90 in /  1012.4 hPa ENE 0.5 mph /  0.8 km/h 2.0 mph /  3.2 km/h 97 % 0.00 in /  0 mm
09:26 44.2 °F /  6.8 °C 43.4 °F /  6.3 °C 29.90 in /  1012.4 hPa ENE 0.7 mph /  1.1 km/h 2.3 mph /  3.7 km/h 97 % 0.00 in /  0 mm
09:31 44.4 °F /  6.9 °C 43.9 °F /  6.6 °C 29.90 in /  1012.4 hPa ENE 0.1 mph /  0.2 km/h 1.2 mph /  1.9 km/h 98 % 0.00 in /  0 mm
09:36 44.6 °F /  7 °C 44.1 °F /  6.7 °C 29.90 in /  1012.4 hPa ENE 0.1 mph /  0.2 km/h 1.2 mph /  1.9 km/h 98 % 0.00 in /  0 mm
09:41 44.8 °F /  7.1 °C 44.0 °F /  6.7 °C 29.90 in /  1012.4 hPa ENE 1.5 mph /  2.4 km/h 2.3 mph /  3.7 km/h 97 % 0.00 in /  0 mm
09:46 45.2 °F /  7.3 °C 44.7 °F /  7.1 °C 29.90 in /  1012.4 hPa ENE 1.9 mph /  3.1 km/h 3.5 mph /  5.6 km/h 98 % 0.00 in /  0 mm
09:51 45.3 °F /  7.4 °C 44.8 °F /  7.1 °C 29.90 in /  1012.4 hPa East 3.3 mph /  5.3 km/h 6.9 mph /  11.1 km/h 98 % 0.00 in /  0 mm
09:56 45.3 °F /  7.4 °C 44.5 °F /  6.9 °C 29.90 in /  1012.4 hPa ENE 2.5 mph /  4 km/h 3.5 mph /  5.6 km/h 97 % 0.00 in /  0 mm
10:01 45.6 °F /  7.6 °C 44.8 °F /  7.1 °C 29.90 in /  1012.4 hPa ENE 3.9 mph /  6.3 km/h 4.6 mph /  7.4 km/h 97 % 0.00 in /  0 mm
10:06 45.6 °F /  7.6 °C 44.8 °F /  7.1 °C 29.91 in /  1012.8 hPa ENE 3.0 mph /  4.8 km/h 4.0 mph /  6.4 km/h 97 % 0.00 in /  0 mm
10:11 45.8 °F /  7.7 °C 45.0 °F /  7.2 °C 29.91 in /  1012.8 hPa ENE 2.6 mph /  4.2 km/h 3.5 mph /  5.6 km/h 97 % 0.00 in /  0 mm
10:16 46.2 °F /  7.9 °C 45.4 °F /  7.4 °C 29.91 in /  1012.8 hPa ENE 2.3 mph /  3.7 km/h 3.5 mph /  5.6 km/h 97 % 0.00 in /  0 mm
10:21 46.5 °F /  8.1 °C 45.4 °F /  7.4 °C 29.91 in /  1012.8 hPa NE 2.2 mph /  3.5 km/h 4.6 mph /  7.4 km/h 96 % 0.00 in /  0 mm
10:26 47.0 °F /  8.3 °C 45.9 °F /  7.7 °C 29.91 in /  1012.8 hPa ENE 3.7 mph /  6 km/h 3.7 mph /  6 km/h 96 % 0.00 in /  0 mm
10:31 47.6 °F /  8.7 °C 46.2 °F /  7.9 °C 29.92 in /  1013.1 hPa ENE 2.9 mph /  4.7 km/h 7.0 mph /  11.3 km/h 95 % 0.00 in /  0 mm
10:36 48.1 °F /  8.9 °C 46.5 °F /  8.1 °C 29.91 in /  1012.8 hPa ENE 3.8 mph /  6.1 km/h 6.9 mph /  11.1 km/h 94 % 0.00 in /  0 mm
10:41 48.5 °F /  9.2 °C 46.6 °F /  8.1 °C 29.92 in /  1013.1 hPa NE 3.2 mph /  5.1 km/h 4.6 mph /  7.4 km/h 93 % 0.00 in /  0 mm
10:46 48.9 °F /  9.4 °C 46.7 °F /  8.2 °C 29.92 in /  1013.1 hPa NNE 3.2 mph /  5.1 km/h 3.5 mph /  5.6 km/h 92 % 0.00 in /  0 mm
10:51 49.7 °F /  9.8 °C 47.8 °F /  8.8 °C 29.92 in /  1013.1 hPa North 3.6 mph /  5.8 km/h 4.0 mph /  6.4 km/h 93 % 0.00 in /  0 mm
10:56 49.7 °F /  9.8 °C 46.6 °F /  8.1 °C 29.92 in /  1013.1 hPa ENE 4.5 mph /  7.2 km/h 6.9 mph /  11.1 km/h 89 % 0.00 in /  0 mm
11:01 49.6 °F /  9.8 °C 46.2 °F /  7.9 °C 29.92 in /  1013.1 hPa ENE 3.5 mph /  5.6 km/h 6.9 mph /  11.1 km/h 88 % 0.00 in /  0 mm
11:04 49.4 °F /  9.7 °C 45.7 °F /  7.6 °C 29.92 in /  1013.1 hPa ENE 1.8 mph /  2.9 km/h 3.5 mph /  5.6 km/h 87 % 0.00 in /  0 mm
11:09 50.0 °F /  10 °C 46.9 °F /  8.3 °C 29.92 in /  1013.1 hPa ENE 2.8 mph /  4.5 km/h 4.6 mph /  7.4 km/h 89 % 0.00 in /  0 mm
11:14 50.1 °F /  10.1 °C 46.1 °F /  7.8 °C 29.92 in /  1013.1 hPa ENE 3.2 mph /  5.1 km/h 4.6 mph /  7.4 km/h 86 % 0.00 in /  0 mm
11:19 50.0 °F /  10 °C 45.7 °F /  7.6 °C 29.92 in /  1013.1 hPa NE 3.3 mph /  5.3 km/h 8.1 mph /  13 km/h 85 % 0.00 in /  0 mm
11:23 50.3 °F /  10.2 °C 46.6 °F /  8.1 °C 29.92 in /  1013.1 hPa NE 3.3 mph /  5.3 km/h 4.6 mph /  7.4 km/h 87 % 0.00 in /  0 mm
11:28 50.5 °F /  10.3 °C 46.5 °F /  8.1 °C 29.92 in /  1013.1 hPa NE 2.8 mph /  4.5 km/h 3.5 mph /  5.6 km/h 86 % 0.00 in /  0 mm
11:33 50.8 °F /  10.4 °C 46.5 °F /  8.1 °C 29.92 in /  1013.1 hPa ENE 3.0 mph /  4.8 km/h 5.0 mph /  8 km/h 85 % 0.00 in /  0 mm
11:38 50.6 °F /  10.3 °C 46.6 °F /  8.1 °C 29.92 in /  1013.1 hPa ENE 2.2 mph /  3.5 km/h 3.5 mph /  5.6 km/h 86 % 0.00 in /  0 mm
11:43 50.6 °F /  10.3 °C 46.3 °F /  7.9 °C 29.92 in /  1013.1 hPa ENE 2.4 mph /  3.9 km/h 3.5 mph /  5.6 km/h 85 % 0.00 in /  0 mm
11:48 50.7 °F /  10.4 °C 46.4 °F /  8 °C 29.92 in /  1013.1 hPa East 2.7 mph /  4.3 km/h 4.0 mph /  6.4 km/h 85 % 0.00 in /  0 mm
11:53 50.8 °F /  10.4 °C 46.1 °F /  7.8 °C 29.91 in /  1012.8 hPa ENE 3.1 mph /  5 km/h 4.6 mph /  7.4 km/h 84 % 0.00 in /  0 mm
11:58 50.4 °F /  10.2 °C 46.1 °F /  7.8 °C 29.91 in /  1012.8 hPa NE 2.9 mph /  4.7 km/h 5.0 mph /  8 km/h 85 % 0.00 in /  0 mm
12:03 50.8 °F /  10.4 °C 46.8 °F /  8.2 °C 29.91 in /  1012.8 hPa ENE 3.3 mph /  5.3 km/h 4.6 mph /  7.4 km/h 86 % 0.00 in /  0 mm
12:08 51.0 °F /  10.6 °C 47.0 °F /  8.3 °C 29.91 in /  1012.8 hPa NE 2.1 mph /  3.4 km/h 3.5 mph /  5.6 km/h 86 % 0.00 in /  0 mm
12:13 51.9 °F /  11.1 °C 47.8 °F /  8.8 °C 29.90 in /  1012.4 hPa ENE 3.8 mph /  6.1 km/h 4.6 mph /  7.4 km/h 86 % 0.00 in /  0 mm
12:18 52.2 °F /  11.2 °C 48.1 °F /  8.9 °C 29.91 in /  1012.8 hPa NNE 2.6 mph /  4.2 km/h 4.0 mph /  6.4 km/h 86 % 0.00 in /  0 mm
12:23 52.4 °F /  11.3 °C 47.7 °F /  8.7 °C 29.91 in /  1012.8 hPa ENE 1.9 mph /  3.1 km/h 3.0 mph /  4.8 km/h 84 % 0.00 in /  0 mm
12:28 52.5 °F /  11.4 °C 47.8 °F /  8.8 °C 29.91 in /  1012.8 hPa NE 1.4 mph /  2.3 km/h 3.5 mph /  5.6 km/h 84 % 0.00 in /  0 mm
12:33 52.8 °F /  11.6 °C 48.1 °F /  8.9 °C 29.90 in /  1012.4 hPa NE 0.9 mph /  1.4 km/h 3.5 mph /  5.6 km/h 84 % 0.00 in /  0 mm
12:38 53.1 °F /  11.7 °C 48.1 °F /  8.9 °C 29.91 in /  1012.8 hPa NNE 0.7 mph /  1.1 km/h 2.3 mph /  3.7 km/h 83 % 0.00 in /  0 mm
12:54 53.3 °F /  11.8 °C 47.9 °F /  8.8 °C 29.91 in /  1012.8 hPa NNE 1.7 mph /  2.7 km/h 6.9 mph /  11.1 km/h 82 % 0.00 in /  0 mm
12:59 53.5 °F /  11.9 °C 47.8 °F /  8.8 °C 29.91 in /  1012.8 hPa East 3.3 mph /  5.3 km/h 5.0 mph /  8 km/h 81 % 0.00 in /  0 mm
13:04 53.4 °F /  11.9 °C 47.7 °F /  8.7 °C 29.91 in /  1012.8 hPa ENE 1.6 mph /  2.6 km/h 3.5 mph /  5.6 km/h 81 % 0.00 in /  0 mm
13:09 53.4 °F /  11.9 °C 47.4 °F /  8.6 °C 29.91 in /  1012.8 hPa ENE 1.7 mph /  2.7 km/h 4.6 mph /  7.4 km/h 80 % 0.00 in /  0 mm
13:14 53.4 °F /  11.9 °C 47.7 °F /  8.7 °C 29.91 in /  1012.8 hPa North 2.6 mph /  4.2 km/h 4.6 mph /  7.4 km/h 81 % 0.00 in /  0 mm
13:19 53.8 °F /  12.1 °C 48.4 °F /  9.1 °C 29.92 in /  1013.1 hPa NE 1.7 mph /  2.7 km/h 3.5 mph /  5.6 km/h 82 % 0.00 in /  0 mm
13:24 53.5 °F /  11.9 °C 47.1 °F /  8.4 °C 29.92 in /  1013.1 hPa ENE 1.9 mph /  3.1 km/h 3.5 mph /  5.6 km/h 79 % 0.00 in /  0 mm
13:29 53.4 °F /  11.9 °C 47.4 °F /  8.6 °C 29.92 in /  1013.1 hPa NE 1.7 mph /  2.7 km/h 3.5 mph /  5.6 km/h 80 % 0.00 in /  0 mm
13:34 53.4 °F /  11.9 °C 46.7 °F /  8.2 °C 29.92 in /  1013.1 hPa ENE 1.9 mph /  3.1 km/h 3.5 mph /  5.6 km/h 78 % 0.00 in /  0 mm
13:39 53.3 °F /  11.8 °C 47.3 °F /  8.5 °C 29.92 in /  1013.1 hPa NE 1.5 mph /  2.4 km/h 3.0 mph /  4.8 km/h 80 % 0.00 in /  0 mm
13:44 53.5 °F /  11.9 °C 47.8 °F /  8.8 °C 29.91 in /  1012.8 hPa ENE 2.5 mph /  4 km/h 3.5 mph /  5.6 km/h 81 % 0.00 in /  0 mm
13:49 53.6 °F /  12 °C 47.2 °F /  8.4 °C 29.92 in /  1013.1 hPa East 2.5 mph /  4 km/h 3.5 mph /  5.6 km/h 79 % 0.00 in /  0 mm
13:54 53.3 °F /  11.8 °C 46.6 °F /  8.1 °C 29.93 in /  1013.4 hPa ENE 1.9 mph /  3.1 km/h 3.5 mph /  5.6 km/h 78 % 0.00 in /  0 mm
13:59 53.3 °F /  11.8 °C 47.3 °F /  8.5 °C 29.92 in /  1013.1 hPa ENE 1.9 mph /  3.1 km/h 3.5 mph /  5.6 km/h 80 % 0.00 in /  0 mm
14:04 53.4 °F /  11.9 °C 47.0 °F /  8.3 °C 29.92 in /  1013.1 hPa NE 2.3 mph /  3.7 km/h 3.5 mph /  5.6 km/h 79 % 0.00 in /  0 mm
14:09 53.3 °F /  11.8 °C 47.3 °F /  8.5 °C 29.92 in /  1013.1 hPa ENE 2.1 mph /  3.4 km/h 3.5 mph /  5.6 km/h 80 % 0.00 in /  0 mm
14:14 53.5 °F /  11.9 °C 47.5 °F /  8.6 °C 29.92 in /  1013.1 hPa NE 0.8 mph /  1.3 km/h 3.5 mph /  5.6 km/h 80 % 0.00 in /  0 mm
14:19 53.8 °F /  12.1 °C 47.8 °F /  8.8 °C 29.93 in /  1013.4 hPa NE 1.1 mph /  1.8 km/h 3.5 mph /  5.6 km/h 80 % 0.00 in /  0 mm
14:24 54.1 °F /  12.3 °C 47.7 °F /  8.7 °C 29.92 in /  1013.1 hPa ENE 2.1 mph /  3.4 km/h 3.5 mph /  5.6 km/h 79 % 0.00 in /  0 mm
14:29 54.0 °F /  12.2 °C 47.6 °F /  8.7 °C 29.92 in /  1013.1 hPa ENE 1.9 mph /  3.1 km/h 2.3 mph /  3.7 km/h 79 % 0.00 in /  0 mm
14:34 53.6 °F /  12 °C 46.6 °F /  8.1 °C 29.92 in /  1013.1 hPa ENE 2.2 mph /  3.5 km/h 3.5 mph /  5.6 km/h 77 % 0.00 in /  0 mm
14:39 53.2 °F /  11.8 °C 46.9 °F /  8.3 °C 29.92 in /  1013.1 hPa ENE 2.6 mph /  4.2 km/h 4.0 mph /  6.4 km/h 79 % 0.00 in /  0 mm
14:44 53.0 °F /  11.7 °C 46.7 °F /  8.2 °C 29.91 in /  1012.8 hPa NE 2.9 mph /  4.7 km/h 5.8 mph /  9.3 km/h 79 % 0.00 in /  0 mm
14:45 52.9 °F /  11.6 °C 46.2 °F /  7.9 °C 29.91 in /  1012.8 hPa ENE 3.3 mph /  5.3 km/h 4.0 mph /  6.4 km/h 78 % 0.00 in /  0 mm
14:50 52.7 °F /  11.5 °C 46.0 °F /  7.8 °C 29.91 in /  1012.8 hPa ENE 3.3 mph /  5.3 km/h 8.1 mph /  13 km/h 78 % 0.00 in /  0 mm
14:53 52.3 °F /  11.3 °C 45.6 °F /  7.6 °C 29.91 in /  1012.8 hPa ENE 5.7 mph /  9.2 km/h 9.2 mph /  14.8 km/h 78 % 0.00 in /  0 mm
14:58 51.8 °F /  11 °C 45.5 °F /  7.5 °C 29.92 in /  1013.1 hPa NE 3.3 mph /  5.3 km/h 6.9 mph /  11.1 km/h 79 % 0.00 in /  0 mm
15:03 51.7 °F /  10.9 °C 45.7 °F /  7.6 °C 29.91 in /  1012.8 hPa East 2.1 mph /  3.4 km/h 3.5 mph /  5.6 km/h 80 % 0.00 in /  0 mm
15:08 51.9 °F /  11.1 °C 47.2 °F /  8.4 °C 29.91 in /  1012.8 hPa ENE 1.9 mph /  3.1 km/h 1.9 mph /  3.1 km/h 84 % 0.00 in /  0 mm
15:13 51.9 °F /  11.1 °C 46.3 °F /  7.9 °C 29.91 in /  1012.8 hPa ENE 1.0 mph /  1.6 km/h 3.5 mph /  5.6 km/h 81 % 0.00 in /  0 mm
15:18 52.1 °F /  11.2 °C 46.4 °F /  8 °C 29.91 in /  1012.8 hPa ENE 0.9 mph /  1.4 km/h 2.3 mph /  3.7 km/h 81 % 0.00 in /  0 mm
15:23 52.8 °F /  11.6 °C 47.8 °F /  8.8 °C 29.91 in /  1012.8 hPa ENE 1.7 mph /  2.7 km/h 3.5 mph /  5.6 km/h 83 % 0.00 in /  0 mm
15:28 53.5 °F /  11.9 °C 47.5 °F /  8.6 °C 29.90 in /  1012.4 hPa ENE 1.4 mph /  2.3 km/h 3.5 mph /  5.6 km/h 80 % 0.00 in /  0 mm
15:33 54.1 °F /  12.3 °C 46.3 °F /  7.9 °C 29.90 in /  1012.4 hPa NNE 1.2 mph /  1.9 km/h 3.5 mph /  5.6 km/h 75 % 0.00 in /  0 mm
15:38 54.6 °F /  12.6 °C 47.2 °F /  8.4 °C 29.90 in /  1012.4 hPa NE 4.2 mph /  6.8 km/h 9.2 mph /  14.8 km/h 76 % 0.00 in /  0 mm
15:44 54.7 °F /  12.6 °C 47.6 °F /  8.7 °C 29.90 in /  1012.4 hPa NE 3.1 mph /  5 km/h 5.8 mph /  9.3 km/h 77 % 0.00 in /  0 mm
15:49 54.9 °F /  12.7 °C 47.8 °F /  8.8 °C 29.90 in /  1012.4 hPa NE 3.9 mph /  6.3 km/h 6.9 mph /  11.1 km/h 77 % 0.00 in /  0 mm
15:54 55.1 °F /  12.8 °C 47.7 °F /  8.7 °C 29.91 in /  1012.8 hPa ENE 3.0 mph /  4.8 km/h 4.0 mph /  6.4 km/h 76 % 0.00 in /  0 mm
15:59 55.3 °F /  12.9 °C 47.5 °F /  8.6 °C 29.90 in /  1012.4 hPa NE 3.5 mph /  5.6 km/h 4.6 mph /  7.4 km/h 75 % 0.00 in /  0 mm
16:04 55.6 °F /  13.1 °C 47.4 °F /  8.6 °C 29.90 in /  1012.4 hPa East 2.8 mph /  4.5 km/h 5.0 mph /  8 km/h 74 % 0.00 in /  0 mm
16:09 55.6 °F /  13.1 °C 47.1 °F /  8.4 °C 29.90 in /  1012.4 hPa ENE 3.0 mph /  4.8 km/h 6.9 mph /  11.1 km/h 73 % 0.00 in /  0 mm
16:14 55.4 °F /  13 °C 47.2 °F /  8.4 °C 29.91 in /  1012.8 hPa ENE 3.1 mph /  5 km/h 4.0 mph /  6.4 km/h 74 % 0.00 in /  0 mm
16:19 55.4 °F /  13 °C 46.9 °F /  8.3 °C 29.91 in /  1012.8 hPa ENE 2.6 mph /  4.2 km/h 4.6 mph /  7.4 km/h 73 % 0.00 in /  0 mm
16:24 55.5 °F /  13.1 °C 47.3 °F /  8.5 °C 29.92 in /  1013.1 hPa ENE 3.8 mph /  6.1 km/h 6.9 mph /  11.1 km/h 74 % 0.00 in /  0 mm
16:29 55.1 °F /  12.8 °C 47.0 °F /  8.3 °C 29.92 in /  1013.1 hPa NE 0.4 mph /  0.6 km/h 3.5 mph /  5.6 km/h 74 % 0.00 in /  0 mm
16:34 55.3 °F /  12.9 °C 47.9 °F /  8.8 °C 29.92 in /  1013.1 hPa NE 0.1 mph /  0.2 km/h   76 % 0.00 in /  0 mm
16:39 55.5 °F /  13.1 °C 48.1 °F /  8.9 °C 29.91 in /  1012.8 hPa NE 0.3 mph /  0.5 km/h 3.5 mph /  5.6 km/h 76 % 0.00 in /  0 mm
16:44 55.7 °F /  13.2 °C 47.5 °F /  8.6 °C 29.91 in /  1012.8 hPa ENE 2.4 mph /  3.9 km/h 3.5 mph /  5.6 km/h 74 % 0.00 in /  0 mm
16:49 55.7 °F /  13.2 °C 47.2 °F /  8.4 °C 29.91 in /  1012.8 hPa ENE 2.3 mph /  3.7 km/h 3.5 mph /  5.6 km/h 73 % 0.00 in /  0 mm
16:54 55.8 °F /  13.2 °C 47.3 °F /  8.5 °C 29.91 in /  1012.8 hPa NE 1.5 mph /  2.4 km/h 3.5 mph /  5.6 km/h 73 % 0.00 in /  0 mm
16:59 55.9 °F /  13.3 °C 47.4 °F /  8.6 °C 29.91 in /  1012.8 hPa ENE 1.5 mph /  2.4 km/h 3.5 mph /  5.6 km/h 73 % 0.00 in /  0 mm
17:05 56.0 °F /  13.3 °C 47.5 °F /  8.6 °C 29.90 in /  1012.4 hPa ENE 1.6 mph /  2.6 km/h 2.3 mph /  3.7 km/h 73 % 0.00 in /  0 mm
17:10 56.1 °F /  13.4 °C 47.6 °F /  8.7 °C 29.90 in /  1012.4 hPa East 2.2 mph /  3.5 km/h 5.0 mph /  8 km/h 73 % 0.00 in /  0 mm
17:15 56.3 °F /  13.5 °C 47.4 °F /  8.6 °C 29.91 in /  1012.8 hPa NE 2.9 mph /  4.7 km/h 4.0 mph /  6.4 km/h 72 % 0.00 in /  0 mm
17:20 56.4 °F /  13.6 °C 46.7 °F /  8.2 °C 29.91 in /  1012.8 hPa ENE 3.5 mph /  5.6 km/h 4.6 mph /  7.4 km/h 70 % 0.00 in /  0 mm
17:25 56.4 °F /  13.6 °C 46.7 °F /  8.2 °C 29.92 in /  1013.1 hPa ENE 2.5 mph /  4 km/h 4.6 mph /  7.4 km/h 70 % 0.00 in /  0 mm
17:30 56.3 °F /  13.5 °C 46.6 °F /  8.1 °C 29.93 in /  1013.4 hPa ENE 3.0 mph /  4.8 km/h 4.0 mph /  6.4 km/h 70 % 0.00 in /  0 mm
17:35 56.2 °F /  13.4 °C 46.9 °F /  8.3 °C 29.93 in /  1013.4 hPa ENE 1.2 mph /  1.9 km/h 3.0 mph /  4.8 km/h 71 % 0.00 in /  0 mm
17:40 56.2 °F /  13.4 °C 46.2 °F /  7.9 °C 29.93 in /  1013.4 hPa ENE 2.4 mph /  3.9 km/h 3.5 mph /  5.6 km/h 69 % 0.00 in /  0 mm
17:45 56.2 °F /  13.4 °C 46.2 °F /  7.9 °C 29.93 in /  1013.4 hPa East 1.5 mph /  2.4 km/h 2.3 mph /  3.7 km/h 69 % 0.00 in /  0 mm
17:50 56.1 °F /  13.4 °C 46.1 °F /  7.8 °C 29.93 in /  1013.4 hPa NE 2.4 mph /  3.9 km/h 3.5 mph /  5.6 km/h 69 % 0.00 in /  0 mm
17:55 56.0 °F /  13.3 °C 46.0 °F /  7.8 °C 29.93 in /  1013.4 hPa ENE 2.4 mph /  3.9 km/h 3.5 mph /  5.6 km/h 69 % 0.00 in /  0 mm
18:00 55.9 °F /  13.3 °C 46.3 °F /  7.9 °C 29.93 in /  1013.4 hPa ENE 2.4 mph /  3.9 km/h 4.6 mph /  7.4 km/h 70 % 0.00 in /  0 mm
18:05 55.7 °F /  13.2 °C 46.1 °F /  7.8 °C 29.93 in /  1013.4 hPa ENE 0.3 mph /  0.5 km/h 2.3 mph /  3.7 km/h 70 % 0.00 in /  0 mm
18:10 55.6 °F /  13.1 °C 46.3 °F /  7.9 °C 29.93 in /  1013.4 hPa ENE 1.8 mph /  2.9 km/h 3.5 mph /  5.6 km/h 71 % 0.00 in /  0 mm
18:15 55.5 °F /  13.1 °C 46.2 °F /  7.9 °C 29.94 in /  1013.8 hPa ENE 1.7 mph /  2.7 km/h 3.5 mph /  5.6 km/h 71 % 0.00 in /  0 mm
18:20 55.2 °F /  12.9 °C 46.3 °F /  7.9 °C 29.94 in /  1013.8 hPa NE 1.1 mph /  1.8 km/h 3.5 mph /  5.6 km/h 72 % 0.00 in /  0 mm
18:25 54.9 °F /  12.7 °C 46.4 °F /  8 °C 29.94 in /  1013.8 hPa NE 0.2 mph /  0.3 km/h 1.2 mph /  1.9 km/h 73 % 0.00 in /  0 mm
18:31 54.7 °F /  12.6 °C 46.6 °F /  8.1 °C 29.94 in /  1013.8 hPa East 0.8 mph /  1.3 km/h 2.3 mph /  3.7 km/h 74 % 0.00 in /  0 mm
18:36 54.5 °F /  12.5 °C 46.4 °F /  8 °C 29.94 in /  1013.8 hPa East 1.5 mph /  2.4 km/h 3.5 mph /  5.6 km/h 74 % 0.00 in /  0 mm
18:41 54.3 °F /  12.4 °C 46.5 °F /  8.1 °C 29.94 in /  1013.8 hPa East 2.1 mph /  3.4 km/h 3.5 mph /  5.6 km/h 75 % 0.00 in /  0 mm
18:46 54.1 °F /  12.3 °C 46.3 °F /  7.9 °C 29.94 in /  1013.8 hPa East 1.5 mph /  2.4 km/h 3.5 mph /  5.6 km/h 75 % 0.00 in /  0 mm
18:51 54.0 °F /  12.2 °C 45.5 °F /  7.5 °C 29.95 in /  1014.1 hPa SE 1.7 mph /  2.7 km/h 3.5 mph /  5.6 km/h 73 % 0.00 in /  0 mm
18:56 53.9 °F /  12.2 °C 45.4 °F /  7.4 °C 29.95 in /  1014.1 hPa SSE 4.2 mph /  6.8 km/h 8.0 mph /  12.9 km/h 73 % 0.00 in /  0 mm
19:01 53.9 °F /  12.2 °C 46.5 °F /  8.1 °C 29.94 in /  1013.8 hPa SSE 5.6 mph /  9 km/h 9.2 mph /  14.8 km/h 76 % 0.00 in /  0 mm
19:06 53.7 °F /  12.1 °C 46.7 °F /  8.2 °C 29.94 in /  1013.8 hPa SSE 4.5 mph /  7.2 km/h 10.0 mph /  16.1 km/h 77 % 0.00 in /  0 mm
19:11 53.3 °F /  11.8 °C 46.3 °F /  7.9 °C 29.94 in /  1013.8 hPa SSE 4.9 mph /  7.9 km/h 6.9 mph /  11.1 km/h 77 % 0.00 in /  0 mm
19:16 52.8 °F /  11.6 °C 45.8 °F /  7.7 °C 29.94 in /  1013.8 hPa SSW 4.0 mph /  6.4 km/h 8.1 mph /  13 km/h 77 % 0.00 in /  0 mm
19:21 52.3 °F /  11.3 °C 45.6 °F /  7.6 °C 29.93 in /  1013.4 hPa SSE 6.5 mph /  10.5 km/h 11.5 mph /  18.5 km/h 78 % 0.00 in /  0 mm
19:26 51.9 °F /  11.1 °C 45.6 °F /  7.6 °C 29.93 in /  1013.4 hPa South 5.0 mph /  8 km/h 8.1 mph /  13 km/h 79 % 0.00 in /  0 mm
19:31 51.6 °F /  10.9 °C 45.3 °F /  7.4 °C 29.93 in /  1013.4 hPa SSE 3.7 mph /  6 km/h 8.1 mph /  13 km/h 79 % 0.00 in /  0 mm
19:36 51.4 °F /  10.8 °C 45.1 °F /  7.3 °C 29.93 in /  1013.4 hPa SSE 6.1 mph /  9.8 km/h 8.1 mph /  13 km/h 79 % 0.00 in /  0 mm
19:41 51.1 °F /  10.6 °C 44.8 °F /  7.1 °C 29.93 in /  1013.4 hPa SSE 5.1 mph /  8.2 km/h 6.9 mph /  11.1 km/h 79 % 0.00 in /  0 mm
19:46 50.9 °F /  10.5 °C 44.9 °F /  7.2 °C 29.94 in /  1013.8 hPa South 2.5 mph /  4 km/h 6.9 mph /  11.1 km/h 80 % 0.00 in /  0 mm
19:51 50.7 °F /  10.4 °C 44.8 °F /  7.1 °C 29.93 in /  1013.4 hPa South 3.5 mph /  5.6 km/h 8.1 mph /  13 km/h 80 % 0.00 in /  0 mm
19:56 50.5 °F /  10.3 °C 44.6 °F /  7 °C 29.93 in /  1013.4 hPa South 3.7 mph /  6 km/h 8.1 mph /  13 km/h 80 % 0.00 in /  0 mm
20:01 50.4 °F /  10.2 °C 44.8 °F /  7.1 °C 29.93 in /  1013.4 hPa SSE 5.9 mph /  9.5 km/h 10.4 mph /  16.7 km/h 81 % 0.00 in /  0 mm
20:06 50.1 °F /  10.1 °C 44.5 °F /  6.9 °C 29.93 in /  1013.4 hPa SSE 8.1 mph /  13 km/h 13.8 mph /  22.2 km/h 81 % 0.00 in /  0 mm
20:11 49.9 °F /  9.9 °C 44.3 °F /  6.8 °C 29.94 in /  1013.8 hPa SSW 4.5 mph /  7.2 km/h 12.7 mph /  20.4 km/h 81 % 0.00 in /  0 mm
20:16 49.8 °F /  9.9 °C 44.5 °F /  6.9 °C 29.94 in /  1013.8 hPa SE 5.1 mph /  8.2 km/h 8.0 mph /  12.9 km/h 82 % 0.00 in /  0 mm
20:21 49.6 °F /  9.8 °C 44.3 °F /  6.8 °C 29.95 in /  1014.1 hPa South 4.7 mph /  7.6 km/h 10.4 mph /  16.7 km/h 82 % 0.00 in /  0 mm
20:26 49.3 °F /  9.6 °C 44.0 °F /  6.7 °C 29.94 in /  1013.8 hPa SSE 6.4 mph /  10.3 km/h 11.5 mph /  18.5 km/h 82 % 0.00 in /  0 mm
20:31 49.1 °F /  9.5 °C 44.2 °F /  6.8 °C 29.94 in /  1013.8 hPa SE 9.0 mph /  14.5 km/h 13.8 mph /  22.2 km/h 83 % 0.00 in /  0 mm
20:36 48.9 °F /  9.4 °C 44.3 °F /  6.8 °C 29.94 in /  1013.8 hPa SE 6.5 mph /  10.5 km/h 13.0 mph /  20.9 km/h 84 % 0.00 in /  0 mm
20:41 48.7 °F /  9.3 °C 44.1 °F /  6.7 °C 29.94 in /  1013.8 hPa South 7.7 mph /  12.4 km/h 13.8 mph /  22.2 km/h 84 % 0.00 in /  0 mm
20:46 48.6 °F /  9.2 °C 44.0 °F /  6.7 °C 29.94 in /  1013.8 hPa South 4.0 mph /  6.4 km/h 8.1 mph /  13 km/h 84 % 0.00 in /  0 mm
20:51 48.5 °F /  9.2 °C 44.2 °F /  6.8 °C 29.95 in /  1014.1 hPa SSE 8.3 mph /  13.4 km/h 11.5 mph /  18.5 km/h 85 % 0.00 in /  0 mm
20:56 48.3 °F /  9.1 °C 44.0 °F /  6.7 °C 29.95 in /  1014.1 hPa SSE 5.6 mph /  9 km/h 11.5 mph /  18.5 km/h 85 % 0.00 in /  0 mm
21:01 48.2 °F /  9 °C 44.2 °F /  6.8 °C 29.96 in /  1014.4 hPa South 4.0 mph /  6.4 km/h 12.7 mph /  20.4 km/h 86 % 0.00 in /  0 mm
21:06 48.0 °F /  8.9 °C 44.0 °F /  6.7 °C 29.97 in /  1014.8 hPa SSE 3.1 mph /  5 km/h 8.1 mph /  13 km/h 86 % 0.00 in /  0 mm
21:11 47.9 °F /  8.8 °C 43.9 °F /  6.6 °C 29.98 in /  1015.1 hPa South 5.5 mph /  8.9 km/h 10.4 mph /  16.7 km/h 86 % 0.00 in /  0 mm
21:16 47.7 °F /  8.7 °C 43.7 °F /  6.5 °C 29.97 in /  1014.8 hPa SSE 5.3 mph /  8.5 km/h 8.1 mph /  13 km/h 86 % 0.00 in /  0 mm
21:22 47.6 °F /  8.7 °C 43.6 °F /  6.4 °C 29.96 in /  1014.4 hPa SSE 9.3 mph /  15 km/h 15.0 mph /  24.1 km/h 86 % 0.00 in /  0 mm
21:27 47.4 °F /  8.6 °C 43.4 °F /  6.3 °C 29.96 in /  1014.4 hPa SSE 7.0 mph /  11.3 km/h 11.0 mph /  17.7 km/h 86 % 0.00 in /  0 mm
21:32 47.1 °F /  8.4 °C 43.1 °F /  6.2 °C 29.96 in /  1014.4 hPa SE 8.4 mph /  13.5 km/h 15.0 mph /  24.1 km/h 86 % 0.00 in /  0 mm
21:37 46.7 °F /  8.2 °C 43.0 °F /  6.1 °C 29.96 in /  1014.4 hPa South 6.1 mph /  9.8 km/h 11.5 mph /  18.5 km/h 87 % 0.00 in /  0 mm
21:42 46.4 °F /  8 °C 42.7 °F /  5.9 °C 29.96 in /  1014.4 hPa South 5.1 mph /  8.2 km/h 10.0 mph /  16.1 km/h 87 % 0.00 in /  0 mm
21:47 46.1 °F /  7.8 °C 42.7 °F /  5.9 °C 29.97 in /  1014.8 hPa South 9.4 mph /  15.1 km/h 13.8 mph /  22.2 km/h 88 % 0.00 in /  0 mm
21:52 45.8 °F /  7.7 °C 42.4 °F /  5.8 °C 29.97 in /  1014.8 hPa SE 6.5 mph /  10.5 km/h 9.0 mph /  14.5 km/h 88 % 0.00 in /  0 mm
21:57 45.6 °F /  7.6 °C 42.5 °F /  5.8 °C 29.98 in /  1015.1 hPa SSE 6.2 mph /  10 km/h 11.5 mph /  18.5 km/h 89 % 0.00 in /  0 mm
22:02 45.4 °F /  7.4 °C 42.3 °F /  5.7 °C 29.98 in /  1015.1 hPa South 6.0 mph /  9.7 km/h 10.4 mph /  16.7 km/h 89 % 0.00 in /  0 mm
22:07 45.3 °F /  7.4 °C 42.2 °F /  5.7 °C 29.98 in /  1015.1 hPa ESE 7.8 mph /  12.6 km/h 12.7 mph /  20.4 km/h 89 % 0.00 in /  0 mm
22:12 45.0 °F /  7.2 °C 42.2 °F /  5.7 °C 29.97 in /  1014.8 hPa SE 9.3 mph /  15 km/h 13.8 mph /  22.2 km/h 90 % 0.00 in /  0 mm
22:17 44.8 °F /  7.1 °C 42.0 °F /  5.6 °C 29.97 in /  1014.8 hPa South 6.0 mph /  9.7 km/h 10.0 mph /  16.1 km/h 90 % 0.00 in /  0 mm
22:22 44.7 °F /  7.1 °C 41.9 °F /  5.5 °C 29.98 in /  1015.1 hPa SSE 5.9 mph /  9.5 km/h 9.2 mph /  14.8 km/h 90 % 0.00 in /  0 mm
22:27 44.5 °F /  6.9 °C 42.0 °F /  5.6 °C 29.95 in /  1014.1 hPa SE 6.0 mph /  9.7 km/h 11.5 mph /  18.5 km/h 91 % 0.00 in /  0 mm
22:32 44.4 °F /  6.9 °C 41.9 °F /  5.5 °C 29.96 in /  1014.4 hPa SSE 4.2 mph /  6.8 km/h 11.5 mph /  18.5 km/h 91 % 0.00 in /  0 mm
22:37 44.2 °F /  6.8 °C 41.7 °F /  5.4 °C 29.94 in /  1013.8 hPa SE 4.6 mph /  7.4 km/h 10.4 mph /  16.7 km/h 91 % 0.00 in /  0 mm
22:42 44.1 °F /  6.7 °C 41.6 °F /  5.3 °C 29.95 in /  1014.1 hPa East 4.5 mph /  7.2 km/h 5.8 mph /  9.3 km/h 91 % 0.00 in /  0 mm
22:47 44.0 °F /  6.7 °C 41.5 °F /  5.3 °C 29.96 in /  1014.4 hPa SE 2.6 mph /  4.2 km/h 5.0 mph /  8 km/h 91 % 0.00 in /  0 mm
22:52 43.8 °F /  6.6 °C 41.4 °F /  5.2 °C 29.96 in /  1014.4 hPa SE 3.0 mph /  4.8 km/h 12.0 mph /  19.3 km/h 91 % 0.00 in /  0 mm
22:57 43.7 °F /  6.5 °C 41.2 °F /  5.1 °C 29.97 in /  1014.8 hPa SSE 5.0 mph /  8 km/h 11.0 mph /  17.7 km/h 91 % 0.00 in /  0 mm
23:02 43.6 °F /  6.4 °C 41.4 °F /  5.2 °C 29.97 in /  1014.8 hPa SE 3.8 mph /  6.1 km/h 10.4 mph /  16.7 km/h 92 % 0.00 in /  0 mm
23:07 43.5 °F /  6.4 °C 41.3 °F /  5.2 °C 29.96 in /  1014.4 hPa ESE 7.3 mph /  11.7 km/h 11.5 mph /  18.5 km/h 92 % 0.00 in /  0 mm
23:12 43.4 °F /  6.3 °C 41.2 °F /  5.1 °C 29.95 in /  1014.1 hPa SE 2.6 mph /  4.2 km/h 7.0 mph /  11.3 km/h 92 % 0.00 in /  0 mm
23:17 43.3 °F /  6.3 °C 41.1 °F /  5.1 °C 29.95 in /  1014.1 hPa ESE 5.1 mph /  8.2 km/h 9.2 mph /  14.8 km/h 92 % 0.00 in /  0 mm
23:22 43.3 °F /  6.3 °C 41.1 °F /  5.1 °C 29.95 in /  1014.1 hPa SE 4.6 mph /  7.4 km/h 10.4 mph /  16.7 km/h 92 % 0.00 in /  0 mm
23:27 43.2 °F /  6.2 °C 41.0 °F /  5 °C 29.96 in /  1014.4 hPa SE 3.7 mph /  6 km/h 5.8 mph /  9.3 km/h 92 % 0.00 in /  0 mm
23:32 43.2 °F /  6.2 °C 41.0 °F /  5 °C 29.96 in /  1014.4 hPa ESE 3.9 mph /  6.3 km/h 6.9 mph /  11.1 km/h 92 % 0.00 in /  0 mm
23:38 43.2 °F /  6.2 °C 41.0 °F /  5 °C 29.97 in /  1014.8 hPa SSE 6.3 mph /  10.1 km/h 11.5 mph /  18.5 km/h 92 % 0.00 in /  0 mm
23:43 43.2 °F /  6.2 °C 41.0 °F /  5 °C 29.98 in /  1015.1 hPa SE 3.6 mph /  5.8 km/h 5.8 mph /  9.3 km/h 92 % 0.00 in /  0 mm
23:48 43.2 °F /  6.2 °C 41.0 °F /  5 °C 29.97 in /  1014.8 hPa SSE 2.4 mph /  3.9 km/h 5.8 mph /  9.3 km/h 92 % 0.00 in /  0 mm
23:53 43.2 °F /  6.2 °C 41.0 °F /  5 °C 29.98 in /  1015.1 hPa SE 2.5 mph /  4 km/h 5.0 mph /  8 km/h 92 % 0.00 in /  0 mm
23:58 43.2 °F /  6.2 °C 41.0 °F /  5 °C 29.98 in /  1015.1 hPa SSE 2.8 mph /  4.5 km/h 4.6 mph /  7.4 km/h 92 % 0.00 in /  0 mm
Crab Meadow Weather
Compliments of Weather Underground - 3 mb

Script developed by  Jim McMurry - jmcmurry@mwt.net Adapted for the template by  Wim van der Kuil - Leuven-Template.eu

Astronomy: The rings of Saturn are made of ice and rock.